createdAt,value
2024-02-02T00:00:18.464Z,7.09
2024-02-02T00:01:20.754Z,7.07
2024-02-02T00:02:22.606Z,7.16
2024-02-02T00:03:24.449Z,7.13
2024-02-02T00:04:26.627Z,7.14
2024-02-02T00:05:28.504Z,7.16
2024-02-02T00:06:30.851Z,7.16
2024-02-02T00:07:33.467Z,7.12
2024-02-02T00:08:35.656Z,7.17
2024-02-02T00:09:37.742Z,7.13
2024-02-02T00:10:40.786Z,7.14
2024-02-02T00:11:43.659Z,7.17
2024-02-02T00:12:45.602Z,7.16
2024-02-02T00:13:47.855Z,7.18
2024-02-02T00:14:49.776Z,7.13
2024-02-02T00:15:53.910Z,7.18
2024-02-02T00:16:55.688Z,7.14
2024-02-02T00:17:57.721Z,7.17
2024-02-02T00:18:59.684Z,7.14
2024-02-02T00:20:02.055Z,7.13
2024-02-02T00:21:04.617Z,7.16
2024-02-02T00:22:06.866Z,7.18
2024-02-02T00:23:08.960Z,7.17
2024-02-02T00:24:10.791Z,7.16
2024-02-02T00:25:12.644Z,7.14
2024-02-02T00:26:14.821Z,7.14
2024-02-02T00:27:17.954Z,7.13
2024-02-02T00:28:20.013Z,7.11
2024-02-02T00:29:22.048Z,7.11
2024-02-02T00:30:23.853Z,7.10
2024-02-02T00:31:25.683Z,6.84
2024-02-02T00:32:28.253Z,6.65
2024-02-02T00:33:30.663Z,6.58
2024-02-02T00:34:33.131Z,6.46
2024-02-02T00:35:35.302Z,6.34
2024-02-02T00:36:37.175Z,6.26
2024-02-02T00:37:39.607Z,6.20
2024-02-02T00:38:41.930Z,6.18
2024-02-02T00:39:44.221Z,6.05
2024-02-02T00:40:46.277Z,6.04
2024-02-02T00:41:48.167Z,6.05
2024-02-02T00:42:52.665Z,6.01
2024-02-02T00:43:54.766Z,5.92
2024-02-02T00:44:59.046Z,5.92
2024-02-02T00:46:01.696Z,5.91
2024-02-02T00:47:03.994Z,5.92
2024-02-02T00:48:07.906Z,5.83
2024-02-02T00:49:10.145Z,5.78
2024-02-02T00:50:12.504Z,5.73
2024-02-02T00:51:14.952Z,5.72
2024-02-02T00:52:16.853Z,5.69
2024-02-02T00:53:19.280Z,5.68
2024-02-02T00:54:21.550Z,5.63
2024-02-02T00:55:23.299Z,5.62
2024-02-02T00:56:25.987Z,5.72
2024-02-02T00:57:29.671Z,5.69
2024-02-02T00:58:31.825Z,5.79
2024-02-02T00:59:34.375Z,5.82
2024-02-02T01:00:36.549Z,5.82
2024-02-02T01:01:40.958Z,5.83
2024-02-02T01:02:43.097Z,5.83
2024-02-02T01:03:44.857Z,5.88
2024-02-02T01:04:47.626Z,5.87
2024-02-02T01:05:49.658Z,5.88
2024-02-02T01:06:51.847Z,5.89
2024-02-02T01:07:54.237Z,5.90
2024-02-02T01:08:55.913Z,5.91
2024-02-02T01:09:58.870Z,5.88
2024-02-02T01:11:02.272Z,5.88
2024-02-02T01:12:06.342Z,5.84
2024-02-02T01:13:08.223Z,5.80
2024-02-02T01:14:10.449Z,5.74
2024-02-02T01:15:12.595Z,5.77
2024-02-02T01:16:15.110Z,5.76
2024-02-02T01:17:17.397Z,5.76
2024-02-02T01:18:19.952Z,5.86
2024-02-02T01:19:22.923Z,5.85
2024-02-02T01:20:25.487Z,5.81
2024-02-02T01:21:27.536Z,5.87
2024-02-02T01:22:29.265Z,5.84
2024-02-02T01:23:30.911Z,5.83
2024-02-02T01:24:33.307Z,5.78
2024-02-02T01:25:35.261Z,5.78
2024-02-02T01:26:37.521Z,5.66
2024-02-02T01:27:40.206Z,5.55
2024-02-02T01:28:42.177Z,5.46
2024-02-02T01:29:43.925Z,5.41
2024-02-02T01:30:47.481Z,5.30
2024-02-02T01:31:49.406Z,5.39
2024-02-02T01:32:51.666Z,5.47
2024-02-02T01:33:53.911Z,5.50
2024-02-02T01:34:55.835Z,5.61
2024-02-02T01:35:57.931Z,5.77
2024-02-02T01:36:59.709Z,5.86
2024-02-02T01:38:01.527Z,5.97
2024-02-02T01:39:05.625Z,6.04
2024-02-02T01:40:08.570Z,6.11
2024-02-02T01:41:10.687Z,6.16
2024-02-02T01:43:15.155Z,6.26
2024-02-02T01:44:17.242Z,6.31
2024-02-02T01:45:19.232Z,6.37
2024-02-02T01:46:21.753Z,6.30
2024-02-02T01:47:23.535Z,6.35
2024-02-02T01:48:27.301Z,6.38
2024-02-02T01:49:29.617Z,6.33
2024-02-02T01:50:31.769Z,6.39
2024-02-02T01:51:36.144Z,6.43
2024-02-02T01:52:38.024Z,6.49
2024-02-02T01:53:39.884Z,6.50
2024-02-02T01:54:42.028Z,6.49
2024-02-02T01:55:44.015Z,6.47
2024-02-02T01:56:47.917Z,6.47
2024-02-02T01:57:49.825Z,6.47
2024-02-02T01:58:53.513Z,6.49
2024-02-02T01:59:58.346Z,6.51
2024-02-02T02:01:01.502Z,6.49
2024-02-02T02:02:08.307Z,6.52
2024-02-02T02:03:10.500Z,6.52
2024-02-02T02:04:13.789Z,6.51
2024-02-02T02:05:16.067Z,6.51
2024-02-02T02:06:19.079Z,6.53
2024-02-02T02:07:21.474Z,6.51
2024-02-02T02:08:24.208Z,6.51
2024-02-02T02:09:26.416Z,6.48
2024-02-02T02:10:28.671Z,6.52
2024-02-02T02:11:33.185Z,6.52
2024-02-02T02:12:36.015Z,6.50
2024-02-02T02:13:39.531Z,6.52
2024-02-02T02:14:42.564Z,6.53
2024-02-02T02:15:45.413Z,6.54
2024-02-02T02:16:49.082Z,6.51
2024-02-02T02:17:54.254Z,6.53
2024-02-02T02:19:02.863Z,6.51
2024-02-02T02:20:12.441Z,6.52
2024-02-02T02:21:27.079Z,6.53
2024-02-02T02:22:29.498Z,6.53
2024-02-02T02:23:36.969Z,6.53
2024-02-02T02:24:38.932Z,6.50
2024-02-02T02:25:44.481Z,6.52
2024-02-02T02:26:47.868Z,6.49
2024-02-02T02:27:51.062Z,6.52
2024-02-02T02:28:57.928Z,6.50
2024-02-02T02:30:02.223Z,6.47
2024-02-02T02:31:05.967Z,6.48
2024-02-02T02:32:09.451Z,6.46
2024-02-02T02:33:13.172Z,6.44
2024-02-02T02:34:15.855Z,6.39
2024-02-02T02:35:19.422Z,6.38
2024-02-02T02:36:25.614Z,6.39
2024-02-02T02:37:29.356Z,6.41
2024-02-02T02:38:35.143Z,6.41
2024-02-02T02:39:39.696Z,6.45
2024-02-02T02:40:43.365Z,6.40
2024-02-02T02:41:46.372Z,6.43
2024-02-02T02:42:51.767Z,6.39
2024-02-02T02:43:53.974Z,6.39
2024-02-02T02:44:55.825Z,6.42
2024-02-02T02:45:59.765Z,6.39
2024-02-02T02:47:02.518Z,6.38
2024-02-02T02:48:06.032Z,6.34
2024-02-02T02:49:10.960Z,6.33
2024-02-02T02:50:13.261Z,6.29
2024-02-02T02:51:15.421Z,6.28
2024-02-02T02:52:17.978Z,6.28
2024-02-02T02:53:20.815Z,6.26
2024-02-02T02:54:22.611Z,6.28
2024-02-02T02:55:24.605Z,6.29
2024-02-02T02:56:26.460Z,6.28
2024-02-02T02:57:29.569Z,6.28
2024-02-02T02:58:32.607Z,6.28
2024-02-02T02:59:34.585Z,6.27
2024-02-02T03:00:37.504Z,6.29
2024-02-02T03:01:39.919Z,6.29
2024-02-02T03:02:42.118Z,6.27
2024-02-02T03:03:45.209Z,6.29
2024-02-02T03:04:47.865Z,6.27
2024-02-02T03:05:50.472Z,6.27
2024-02-02T03:06:53.052Z,6.28
2024-02-02T03:07:55.887Z,6.30
2024-02-02T03:08:58.554Z,6.29
2024-02-02T03:10:01.173Z,6.27
2024-02-02T03:11:02.999Z,6.30
2024-02-02T03:12:06.706Z,6.31
2024-02-02T03:13:08.683Z,6.32
2024-02-02T03:14:12.169Z,6.32
2024-02-02T03:15:13.907Z,6.30
2024-02-02T03:16:15.694Z,6.28
2024-02-02T03:17:18.012Z,6.30
2024-02-02T03:18:21.210Z,6.30
2024-02-02T03:19:23.237Z,6.29
2024-02-02T03:20:27.959Z,6.31
2024-02-02T03:21:29.853Z,6.32
2024-02-02T03:22:31.769Z,6.28
2024-02-02T03:23:33.972Z,6.31
2024-02-02T03:24:35.873Z,6.27
2024-02-02T03:25:37.917Z,6.30
2024-02-02T03:26:39.652Z,6.32
2024-02-02T03:27:41.607Z,6.35
2024-02-02T03:28:43.368Z,6.35
2024-02-02T03:29:45.183Z,6.33
2024-02-02T03:30:47.319Z,6.33
2024-02-02T03:31:49.697Z,6.33
2024-02-02T03:32:51.732Z,6.36
2024-02-02T03:33:53.718Z,6.37
2024-02-02T03:34:55.940Z,6.37
2024-02-02T03:35:57.758Z,6.39
2024-02-02T03:36:59.889Z,6.39
2024-02-02T03:38:04.551Z,6.41
2024-02-02T03:39:06.650Z,6.38
2024-02-02T03:40:10.303Z,6.34
2024-02-02T03:41:12.097Z,6.37
2024-02-02T03:42:14.233Z,6.37
2024-02-02T03:43:17.046Z,6.36
2024-02-02T03:44:20.210Z,6.41
2024-02-02T03:45:21.933Z,6.39
2024-02-02T03:46:24.121Z,6.38
2024-02-02T03:47:26.279Z,6.38
2024-02-02T03:48:28.159Z,6.42
2024-02-02T03:49:30.455Z,6.42
2024-02-02T03:50:35.472Z,6.46
2024-02-02T03:51:37.479Z,6.44
2024-02-02T03:52:39.326Z,6.43
2024-02-02T03:53:41.079Z,6.41
2024-02-02T03:54:42.851Z,6.42
2024-02-02T03:55:44.709Z,6.33
2024-02-02T03:56:47.404Z,6.15
2024-02-02T03:57:49.502Z,5.90
2024-02-02T03:58:51.179Z,5.67
2024-02-02T03:59:53.276Z,5.59
2024-02-02T04:00:55.232Z,5.47
2024-02-02T04:01:57.099Z,5.33
2024-02-02T04:02:58.963Z,5.19
2024-02-02T04:04:01.403Z,5.13
2024-02-02T04:05:05.274Z,5.00
2024-02-02T04:06:07.230Z,4.96
2024-02-02T04:07:09.001Z,4.92
2024-02-02T04:08:10.654Z,4.85
2024-02-02T04:09:12.884Z,4.71
2024-02-02T04:10:16.144Z,4.76
2024-02-02T04:11:18.181Z,4.76
2024-02-02T04:12:19.966Z,4.72
2024-02-02T04:13:21.940Z,4.70
2024-02-02T04:14:24.511Z,4.62
2024-02-02T04:15:27.025Z,4.62
2024-02-02T04:16:29.949Z,4.55
2024-02-02T04:17:32.239Z,4.50
2024-02-02T04:18:34.746Z,4.53
2024-02-02T04:19:36.878Z,4.41
2024-02-02T04:20:38.792Z,4.42
2024-02-02T04:21:40.548Z,4.41
2024-02-02T04:22:42.881Z,4.42
2024-02-02T04:23:44.666Z,4.45
2024-02-02T04:24:51.320Z,4.48
2024-02-02T04:25:53.364Z,4.53
2024-02-02T04:26:55.300Z,4.50
2024-02-02T04:27:57.062Z,4.56
2024-02-02T04:28:59.070Z,4.68
2024-02-02T04:30:01.093Z,4.64
2024-02-02T04:31:02.975Z,4.59
2024-02-02T04:32:05.145Z,4.61
2024-02-02T04:33:08.152Z,4.49
2024-02-02T04:34:10.653Z,4.54
2024-02-02T04:35:12.402Z,4.57
2024-02-02T04:36:15.212Z,4.53
2024-02-02T04:37:17.167Z,4.51
2024-02-02T04:38:20.420Z,4.54
2024-02-02T04:39:22.514Z,4.59
2024-02-02T04:40:24.314Z,4.61
2024-02-02T04:41:27.842Z,4.65
2024-02-02T04:42:29.687Z,4.65
2024-02-02T04:43:31.798Z,4.70
2024-02-02T04:44:33.596Z,4.75
2024-02-02T04:45:37.932Z,4.74
2024-02-02T04:46:39.649Z,4.72
2024-02-02T04:47:41.407Z,4.72
2024-02-02T04:48:43.235Z,4.74
2024-02-02T04:49:45.537Z,4.73
2024-02-02T04:50:48.065Z,4.78
2024-02-02T04:51:50.369Z,4.75
2024-02-02T04:52:52.084Z,4.63
2024-02-02T04:53:53.964Z,4.80
2024-02-02T04:54:57.117Z,4.72
2024-02-02T04:55:59.568Z,4.64
2024-02-02T04:57:01.922Z,4.65
2024-02-02T04:58:06.427Z,4.70
2024-02-02T04:59:08.405Z,4.69
2024-02-02T05:00:12.230Z,4.73
2024-02-02T05:01:14.052Z,4.73
2024-02-02T05:02:16.916Z,4.62
2024-02-02T05:03:20.074Z,4.62
2024-02-02T05:04:22.202Z,4.49
2024-02-02T05:05:24.753Z,4.47
2024-02-02T05:06:26.697Z,4.44
2024-02-02T05:07:28.880Z,4.40
2024-02-02T05:08:32.575Z,4.38
2024-02-02T05:09:34.397Z,4.30
2024-02-02T05:10:37.165Z,4.28
2024-02-02T05:11:38.993Z,4.25
2024-02-02T05:12:41.015Z,4.25
2024-02-02T05:13:43.761Z,4.20
2024-02-02T05:14:46.674Z,4.19
2024-02-02T05:15:50.432Z,4.14
2024-02-02T05:16:52.209Z,4.15
2024-02-02T05:17:54.403Z,4.12
2024-02-02T05:18:56.583Z,4.12
2024-02-02T05:19:59.859Z,4.07
2024-02-02T05:21:01.621Z,4.06
2024-02-02T05:22:04.502Z,4.04
2024-02-02T05:23:07.444Z,4.02
2024-02-02T05:24:22.040Z,3.98
2024-02-02T05:25:31.848Z,3.98
2024-02-02T05:26:33.575Z,3.93
2024-02-02T05:27:35.470Z,3.94
2024-02-02T05:28:37.414Z,3.93
2024-02-02T05:29:41.048Z,3.90
2024-02-02T05:30:43.374Z,3.97
2024-02-02T05:31:45.981Z,3.95
2024-02-02T05:32:49.000Z,3.94
2024-02-02T05:33:51.339Z,3.94
2024-02-02T05:34:53.389Z,3.95
2024-02-02T05:35:55.424Z,3.95
2024-02-02T05:36:58.181Z,3.94
2024-02-02T05:38:01.582Z,3.87
2024-02-02T05:39:06.494Z,3.90
2024-02-02T05:40:09.769Z,3.88
2024-02-02T05:41:13.141Z,3.84
2024-02-02T05:42:20.311Z,3.83
2024-02-02T05:43:22.018Z,3.88
2024-02-02T05:44:23.824Z,3.87
2024-02-02T05:45:26.230Z,3.88
2024-02-02T05:46:28.063Z,3.81
2024-02-02T05:47:29.934Z,3.84
2024-02-02T05:48:31.893Z,3.81
2024-02-02T05:49:34.256Z,3.77
2024-02-02T05:50:36.189Z,3.74
2024-02-02T05:51:39.374Z,3.73
2024-02-02T05:52:41.092Z,3.71
2024-02-02T05:53:42.786Z,3.70
2024-02-02T05:54:45.287Z,3.70
2024-02-02T05:55:47.668Z,3.68
2024-02-02T05:56:49.879Z,3.68
2024-02-02T05:57:51.623Z,3.72
2024-02-02T05:58:53.689Z,3.68
2024-02-02T05:59:56.960Z,3.70
2024-02-02T06:01:00.255Z,3.68
2024-02-02T06:02:02.547Z,3.67
2024-02-02T06:03:05.974Z,3.69
2024-02-02T06:04:08.416Z,3.71
2024-02-02T06:05:11.334Z,3.71
2024-02-02T06:06:14.597Z,3.66
2024-02-02T06:07:17.255Z,3.69
2024-02-02T06:08:19.220Z,3.70
2024-02-02T06:09:21.047Z,3.70
2024-02-02T06:10:23.014Z,3.70
2024-02-02T06:11:24.831Z,3.72
2024-02-02T06:12:26.682Z,3.70
2024-02-02T06:13:28.845Z,3.67
2024-02-02T06:14:34.259Z,3.72
2024-02-02T06:15:36.206Z,3.70
2024-02-02T06:16:38.231Z,3.71
2024-02-02T06:17:41.209Z,3.71
2024-02-02T06:18:43.601Z,3.70
2024-02-02T06:19:46.312Z,3.73
2024-02-02T06:20:49.075Z,3.74
2024-02-02T06:21:51.258Z,3.71
2024-02-02T06:22:53.176Z,3.74
2024-02-02T06:23:56.816Z,3.78
2024-02-02T06:24:58.644Z,3.76
2024-02-02T06:26:00.407Z,3.81
2024-02-02T06:27:02.599Z,3.85
2024-02-02T06:28:04.869Z,3.82
2024-02-02T06:29:09.604Z,3.85
2024-02-02T06:30:12.859Z,3.78
2024-02-02T06:31:15.308Z,3.83
2024-02-02T06:32:21.994Z,3.82
2024-02-02T06:33:23.803Z,3.82
2024-02-02T06:34:27.916Z,3.83
2024-02-02T06:35:30.277Z,3.80
2024-02-02T06:36:32.120Z,3.81
2024-02-02T06:37:34.166Z,3.79
2024-02-02T06:38:36.224Z,3.78
2024-02-02T06:39:37.953Z,3.75
2024-02-02T06:40:41.768Z,3.75
2024-02-02T06:41:45.015Z,3.73
2024-02-02T06:42:47.396Z,3.75
2024-02-02T06:43:49.274Z,3.77
2024-02-02T06:44:52.896Z,3.78
2024-02-02T06:45:56.438Z,3.85
2024-02-02T06:46:58.811Z,3.82
2024-02-02T06:48:00.920Z,3.85
2024-02-02T06:49:02.854Z,3.87
2024-02-02T06:50:05.953Z,3.90
2024-02-02T06:51:08.838Z,3.87
2024-02-02T06:52:10.842Z,3.92
2024-02-02T06:53:13.801Z,3.97
2024-02-02T06:54:15.713Z,4.07
2024-02-02T06:55:17.997Z,4.02
2024-02-02T06:56:43.034Z,4.06
2024-02-02T06:57:46.441Z,4.05
2024-02-02T06:58:50.947Z,4.07
2024-02-02T06:59:54.355Z,4.03
2024-02-02T07:00:57.755Z,4.24
2024-02-02T07:02:00.813Z,4.35
2024-02-02T07:03:02.770Z,4.57
2024-02-02T07:04:09.580Z,4.67
2024-02-02T07:05:14.463Z,4.81
2024-02-02T07:06:18.900Z,4.86
2024-02-02T07:07:20.858Z,4.92
2024-02-02T07:08:22.945Z,4.97
2024-02-02T07:09:34.623Z,5.12
2024-02-02T07:10:36.430Z,5.18
2024-02-02T07:12:00.150Z,5.23
2024-02-02T07:13:03.191Z,5.29
2024-02-02T07:14:10.434Z,5.33
2024-02-02T07:15:22.605Z,5.30
2024-02-02T07:16:31.816Z,5.34
2024-02-02T07:17:38.924Z,5.42
2024-02-02T07:18:43.661Z,5.40
2024-02-02T07:19:45.928Z,5.45
2024-02-02T07:20:56.494Z,5.49
2024-02-02T07:21:58.299Z,5.48
2024-02-02T07:23:03.150Z,5.46
2024-02-02T07:24:05.479Z,5.51
2024-02-02T07:25:28.543Z,5.56
2024-02-02T07:26:34.071Z,5.57
2024-02-02T07:27:49.376Z,5.61
2024-02-02T07:28:51.431Z,5.60
2024-02-02T07:29:54.185Z,5.59
2024-02-02T07:30:56.965Z,5.57
2024-02-02T07:32:05.669Z,5.60
2024-02-02T07:33:18.398Z,5.62
2024-02-02T07:34:43.092Z,5.66
2024-02-02T07:35:45.298Z,5.63
2024-02-02T07:36:47.042Z,5.60
2024-02-02T07:37:49.731Z,5.62
2024-02-02T07:38:56.856Z,5.60
2024-02-02T07:40:00.615Z,5.64
2024-02-02T07:41:06.594Z,5.72
2024-02-02T07:42:14.957Z,5.72
2024-02-02T07:43:18.038Z,5.73
2024-02-02T07:44:19.989Z,5.69
2024-02-02T07:45:24.590Z,5.76
2024-02-02T07:46:26.978Z,5.76
2024-02-02T07:47:31.681Z,5.65
2024-02-02T07:48:36.077Z,5.73
2024-02-02T07:49:39.037Z,5.80
2024-02-02T07:50:40.812Z,5.79
2024-02-02T07:51:44.564Z,5.86
2024-02-02T07:52:47.124Z,5.90
2024-02-02T07:53:50.488Z,5.96
2024-02-02T07:54:52.511Z,5.90
2024-02-02T07:55:54.635Z,5.97
2024-02-02T07:56:57.670Z,5.96
2024-02-02T07:58:02.077Z,6.02
2024-02-02T07:59:05.924Z,6.06
2024-02-02T08:00:08.802Z,6.08
2024-02-02T08:01:13.657Z,6.01
2024-02-02T08:02:15.638Z,6.00
2024-02-02T08:03:19.120Z,5.99
2024-02-02T08:04:20.956Z,6.01
2024-02-02T08:05:22.820Z,5.99
2024-02-02T08:06:24.812Z,5.96
2024-02-02T08:07:26.846Z,5.97
2024-02-02T08:08:32.884Z,5.99
2024-02-02T08:09:34.667Z,5.94
2024-02-02T08:10:36.769Z,5.94
2024-02-02T08:11:39.720Z,5.95
2024-02-02T08:12:41.464Z,5.98
2024-02-02T08:13:43.838Z,6.02
2024-02-02T08:14:45.848Z,6.04
2024-02-02T08:15:48.568Z,6.03
2024-02-02T08:16:51.228Z,6.04
2024-02-02T08:17:53.664Z,5.98
2024-02-02T08:18:56.804Z,5.98
2024-02-02T08:19:58.854Z,5.96
2024-02-02T08:21:04.188Z,5.96
2024-02-02T08:22:06.114Z,5.99
2024-02-02T08:23:08.290Z,6.02
2024-02-02T08:24:11.663Z,5.98
2024-02-02T08:25:14.242Z,5.97
2024-02-02T08:26:18.007Z,5.96
2024-02-02T08:27:21.103Z,5.97
2024-02-02T08:28:23.014Z,6.05
2024-02-02T08:29:27.379Z,6.11
2024-02-02T08:30:29.311Z,6.13
2024-02-02T08:31:33.483Z,6.19
2024-02-02T08:32:42.538Z,6.09
2024-02-02T08:33:45.197Z,6.08
2024-02-02T08:34:47.033Z,6.09
2024-02-02T08:35:49.473Z,6.10
2024-02-02T08:36:51.564Z,6.23
2024-02-02T08:38:01.697Z,6.26
2024-02-02T08:39:03.955Z,6.25
2024-02-02T08:40:07.472Z,6.33
2024-02-02T08:41:09.945Z,6.30
2024-02-02T08:42:20.644Z,6.28
2024-02-02T08:43:23.033Z,6.26
2024-02-02T08:44:25.435Z,6.27
2024-02-02T08:45:42.192Z,6.27
2024-02-02T08:46:47.861Z,6.20
2024-02-02T08:47:51.580Z,6.19
2024-02-02T08:48:57.201Z,6.12
2024-02-02T08:50:02.324Z,6.06
2024-02-02T08:51:23.371Z,6.10
2024-02-02T08:52:39.406Z,6.15
2024-02-02T08:53:43.568Z,6.13
2024-02-02T08:54:49.075Z,6.18
2024-02-02T08:55:50.966Z,6.21
2024-02-02T08:57:07.747Z,6.21
2024-02-02T08:58:11.327Z,6.15
2024-02-02T08:59:44.932Z,6.11
2024-02-02T09:00:50.572Z,6.14
2024-02-02T09:01:53.238Z,6.15
2024-02-02T09:03:03.200Z,6.16
2024-02-02T09:04:46.918Z,6.09
2024-02-02T09:05:55.763Z,6.07
2024-02-02T09:06:57.877Z,6.09
2024-02-02T09:08:03.025Z,6.09
2024-02-02T09:09:07.213Z,6.11
2024-02-02T09:10:29.485Z,6.13
2024-02-02T09:11:31.754Z,6.10
2024-02-02T09:12:36.230Z,6.14
2024-02-02T09:13:38.148Z,6.09
2024-02-02T09:14:42.365Z,6.08
2024-02-02T09:15:44.106Z,6.07
2024-02-02T09:16:51.841Z,6.16
2024-02-02T09:17:53.841Z,6.11
2024-02-02T09:18:57.230Z,6.13
2024-02-02T09:19:59.691Z,6.14
2024-02-02T09:21:03.509Z,6.12
2024-02-02T09:22:13.685Z,6.20
2024-02-02T09:23:16.224Z,6.21
2024-02-02T09:24:52.777Z,6.24
2024-02-02T09:25:54.745Z,6.28
2024-02-02T09:26:59.331Z,6.21
2024-02-02T09:28:01.697Z,6.23
2024-02-02T09:29:03.544Z,6.21
2024-02-02T09:30:23.423Z,6.24
2024-02-02T09:31:27.007Z,6.30
2024-02-02T09:32:29.023Z,6.30
2024-02-02T09:33:37.010Z,6.29
2024-02-02T09:34:39.729Z,6.30
2024-02-02T09:35:54.544Z,6.31
2024-02-02T09:36:56.629Z,6.36
2024-02-02T09:37:59.100Z,6.39
2024-02-02T09:39:11.451Z,6.35
2024-02-02T09:40:35.560Z,6.38
2024-02-02T09:41:49.908Z,6.49
2024-02-02T09:43:12.649Z,6.44
2024-02-02T09:44:44.520Z,6.44
2024-02-02T09:46:06.130Z,6.40
2024-02-02T09:47:10.868Z,6.39
2024-02-02T09:48:25.086Z,6.39
2024-02-02T09:49:48.292Z,6.35
2024-02-02T09:51:23.783Z,6.36
2024-02-02T09:52:44.031Z,6.38
2024-02-02T09:54:01.603Z,6.41
2024-02-02T09:55:10.221Z,6.42
2024-02-02T09:56:18.337Z,6.44
2024-02-02T09:57:45.224Z,6.45
2024-02-02T09:58:59.860Z,6.38
2024-02-02T10:00:34.297Z,6.45
2024-02-02T10:02:24.204Z,6.48
2024-02-02T10:03:32.138Z,6.48
2024-02-02T10:04:49.983Z,6.48
2024-02-02T10:06:07.851Z,6.53
2024-02-02T10:07:31.985Z,6.51
2024-02-02T10:09:00.450Z,6.54
2024-02-02T10:10:28.296Z,6.53
2024-02-02T10:12:02.014Z,6.52
2024-02-02T10:13:26.410Z,6.46
2024-02-02T10:14:59.111Z,6.45
2024-02-02T10:16:28.532Z,6.51
2024-02-02T10:17:55.568Z,6.46
2024-02-02T10:19:35.861Z,6.49
2024-02-02T10:20:52.717Z,6.47
2024-02-02T10:22:19.649Z,6.53
2024-02-02T10:23:40.239Z,6.59
2024-02-02T10:24:44.020Z,6.64
2024-02-02T10:26:05.799Z,6.67
2024-02-02T10:27:31.938Z,6.59
2024-02-02T10:28:52.877Z,6.55
2024-02-02T10:30:08.923Z,6.61
2024-02-02T10:31:26.374Z,6.59
2024-02-02T10:32:57.520Z,6.58
2024-02-02T10:34:36.881Z,6.54
2024-02-02T10:35:48.936Z,6.53
2024-02-02T10:36:53.970Z,6.56
2024-02-02T10:38:10.442Z,6.60
2024-02-02T10:39:46.993Z,6.54
2024-02-02T10:41:03.202Z,6.58
2024-02-02T10:42:20.475Z,6.58
2024-02-02T10:44:06.833Z,6.58
2024-02-02T10:45:26.666Z,6.63
2024-02-02T10:46:36.189Z,6.65
2024-02-02T10:47:57.466Z,6.64
2024-02-02T10:49:06.693Z,6.70
2024-02-02T10:50:09.051Z,6.73
2024-02-02T10:51:33.913Z,6.83
2024-02-02T10:52:57.230Z,6.91
2024-02-02T10:54:00.244Z,6.94
2024-02-02T10:55:05.339Z,6.94
2024-02-02T10:56:34.146Z,6.96
2024-02-02T10:57:46.728Z,6.96
2024-02-02T10:59:00.951Z,6.95
2024-02-02T11:00:08.876Z,6.95
2024-02-02T11:01:24.135Z,6.99
2024-02-02T11:03:07.492Z,7.07
2024-02-02T11:04:46.886Z,7.12
2024-02-02T11:06:12.041Z,7.06
2024-02-02T11:07:41.151Z,7.02
2024-02-02T11:08:51.341Z,7.08
2024-02-02T11:10:03.502Z,7.05
2024-02-02T11:11:09.423Z,7.02
2024-02-02T11:12:18.308Z,6.98
2024-02-02T11:13:38.237Z,7.01
2024-02-02T11:14:45.916Z,7.05
2024-02-02T11:16:21.341Z,6.95
2024-02-02T11:17:35.250Z,6.98
2024-02-02T11:19:03.332Z,7.02
2024-02-02T11:20:26.481Z,6.92
2024-02-02T11:21:40.456Z,6.88
2024-02-02T11:22:57.566Z,6.90
2024-02-02T11:24:07.929Z,6.93
2024-02-02T11:25:23.162Z,6.92
2024-02-02T11:26:39.022Z,6.87
2024-02-02T11:28:03.180Z,6.95
2024-02-02T11:29:18.147Z,6.98
2024-02-02T11:30:45.524Z,7.20
2024-02-02T11:31:58.642Z,7.28
2024-02-02T11:33:03.390Z,7.36
2024-02-02T11:34:20.144Z,7.46
2024-02-02T11:35:37.437Z,7.48
2024-02-02T11:36:57.808Z,7.49
2024-02-02T11:38:03.695Z,7.50
2024-02-02T11:39:14.966Z,7.53
2024-02-02T11:40:19.249Z,7.60
2024-02-02T11:41:22.402Z,7.60
2024-02-02T11:42:26.175Z,7.62
2024-02-02T11:43:31.710Z,7.66
2024-02-02T11:44:35.854Z,7.64
2024-02-02T11:45:40.589Z,7.73
2024-02-02T11:46:43.872Z,7.70
2024-02-02T11:47:53.068Z,7.76
2024-02-02T11:49:13.161Z,7.81
2024-02-02T11:50:18.892Z,7.82
2024-02-02T11:51:24.220Z,7.79
2024-02-02T11:52:33.141Z,7.86
2024-02-02T11:53:41.448Z,7.81
2024-02-02T11:54:46.904Z,7.83
2024-02-02T11:55:55.203Z,7.81
2024-02-02T11:56:57.491Z,7.79
2024-02-02T11:58:03.775Z,7.84
2024-02-02T11:59:13.724Z,7.93
2024-02-02T12:00:29.486Z,7.87
2024-02-02T12:02:00.535Z,7.88
2024-02-02T12:03:09.915Z,7.81
2024-02-02T12:04:18.387Z,7.77
2024-02-02T12:05:26.240Z,7.88
2024-02-02T12:06:30.315Z,7.95
2024-02-02T12:07:44.800Z,7.90
2024-02-02T12:09:19.346Z,7.95
2024-02-02T12:10:23.784Z,8.01
2024-02-02T12:11:43.180Z,7.89
2024-02-02T12:13:07.693Z,7.88
2024-02-02T12:14:32.230Z,7.92
2024-02-02T12:15:34.306Z,7.83
2024-02-02T12:16:36.194Z,7.90
2024-02-02T12:17:39.439Z,7.84
2024-02-02T12:18:42.163Z,7.86
2024-02-02T12:19:45.383Z,7.96
2024-02-02T12:20:47.870Z,7.99
2024-02-02T12:21:50.076Z,8.05
2024-02-02T12:22:52.572Z,8.07
2024-02-02T12:23:55.870Z,8.11
2024-02-02T12:24:58.126Z,7.98
2024-02-02T12:26:02.094Z,8.04
2024-02-02T12:27:05.134Z,8.14
2024-02-02T12:28:09.637Z,8.08
2024-02-02T12:29:14.861Z,8.07
2024-02-02T12:30:18.046Z,8.10
2024-02-02T12:31:20.075Z,8.10
2024-02-02T12:32:22.118Z,8.06
2024-02-02T12:33:26.717Z,8.08
2024-02-02T12:34:29.359Z,8.05
2024-02-02T12:35:32.162Z,8.07
2024-02-02T12:36:34.285Z,8.06
2024-02-02T12:37:49.736Z,8.03
2024-02-02T12:38:52.184Z,8.06
2024-02-02T12:39:54.426Z,8.03
2024-02-02T12:40:57.425Z,8.00
2024-02-02T12:42:00.080Z,7.99
2024-02-02T12:43:02.950Z,8.00
2024-02-02T12:44:07.780Z,8.06
2024-02-02T12:45:17.064Z,8.08
2024-02-02T12:46:19.477Z,8.09
2024-02-02T12:47:26.661Z,8.14
2024-02-02T12:48:33.577Z,8.16
2024-02-02T12:49:38.193Z,8.08
2024-02-02T12:50:40.272Z,8.12
2024-02-02T12:51:42.308Z,8.16
2024-02-02T12:52:44.778Z,8.25
2024-02-02T12:53:49.934Z,8.29
2024-02-02T12:54:53.756Z,8.33
2024-02-02T12:55:56.099Z,8.28
2024-02-02T12:56:57.975Z,8.31
2024-02-02T12:57:59.759Z,8.25
2024-02-02T12:59:02.338Z,8.17
2024-02-02T13:00:08.131Z,8.25
2024-02-02T13:01:11.363Z,8.25
2024-02-02T13:02:15.199Z,8.27
2024-02-02T13:03:18.478Z,8.33
2024-02-02T13:04:20.950Z,8.40
2024-02-02T13:05:24.244Z,8.38
2024-02-02T13:06:26.773Z,8.34
2024-02-02T13:07:29.746Z,8.35
2024-02-02T13:08:32.718Z,8.36
2024-02-02T13:09:35.121Z,8.36
2024-02-02T13:10:37.456Z,8.42
2024-02-02T13:11:44.336Z,8.46
2024-02-02T13:12:47.643Z,8.40
2024-02-02T13:13:53.111Z,8.32
2024-02-02T13:15:13.825Z,8.33
2024-02-02T13:16:35.420Z,8.45
2024-02-02T13:17:38.553Z,8.46
2024-02-02T13:18:45.042Z,8.37
2024-02-02T13:19:47.758Z,8.36
2024-02-02T13:20:52.693Z,8.32
2024-02-02T13:22:01.866Z,8.35
2024-02-02T13:23:14.381Z,8.37
2024-02-02T13:24:20.514Z,8.41
2024-02-02T13:25:29.029Z,8.28
2024-02-02T13:26:40.362Z,8.32
2024-02-02T13:27:45.326Z,8.26
2024-02-02T13:28:50.550Z,8.23
2024-02-02T13:29:58.180Z,8.15
2024-02-02T13:31:05.522Z,8.22
2024-02-02T13:32:17.940Z,8.31
2024-02-02T13:33:21.343Z,8.35
2024-02-02T13:34:23.704Z,8.43
2024-02-02T13:35:31.386Z,8.43
2024-02-02T13:36:40.360Z,8.31
2024-02-02T13:37:45.828Z,8.34
2024-02-02T13:38:48.685Z,8.29
2024-02-02T13:39:55.453Z,8.32
2024-02-02T13:40:59.070Z,8.36
2024-02-02T13:42:03.365Z,8.30
2024-02-02T13:43:07.804Z,8.40
2024-02-02T13:44:12.382Z,8.38
2024-02-02T13:45:18.879Z,8.40
2024-02-02T13:46:22.918Z,8.42
2024-02-02T13:47:26.273Z,8.37
2024-02-02T13:48:49.371Z,8.47
2024-02-02T13:50:01.167Z,8.46
2024-02-02T13:51:04.147Z,8.41
2024-02-02T13:52:06.762Z,8.39
2024-02-02T13:53:10.795Z,8.45
2024-02-02T13:54:13.164Z,8.49
2024-02-02T13:55:19.998Z,8.48
2024-02-02T13:56:28.134Z,8.50
2024-02-02T13:57:30.257Z,8.49
2024-02-02T13:58:41.355Z,8.54
2024-02-02T13:59:44.257Z,8.55
2024-02-02T14:00:47.211Z,8.59
2024-02-02T14:01:53.755Z,8.61
2024-02-02T14:03:18.463Z,8.67
2024-02-02T14:04:27.679Z,8.67
2024-02-02T14:05:29.711Z,8.70
2024-02-02T14:06:33.049Z,8.74
2024-02-02T14:07:35.432Z,8.75
2024-02-02T14:08:45.001Z,8.71
2024-02-02T14:09:48.400Z,8.73
2024-02-02T14:10:52.759Z,8.81
2024-02-02T14:12:04.204Z,8.85
2024-02-02T14:13:06.798Z,8.84
2024-02-02T14:14:10.402Z,8.78
2024-02-02T14:15:12.882Z,8.81
2024-02-02T14:16:24.237Z,8.83
2024-02-02T14:17:26.560Z,8.84
2024-02-02T14:18:30.706Z,8.87
2024-02-02T14:19:33.621Z,8.86
2024-02-02T14:20:35.419Z,8.83
2024-02-02T14:21:38.762Z,8.81
2024-02-02T14:22:41.593Z,8.73
2024-02-02T14:23:43.860Z,8.73
2024-02-02T14:24:49.645Z,8.86
2024-02-02T14:25:52.245Z,8.86
2024-02-02T14:26:56.350Z,8.76
2024-02-02T14:27:58.520Z,8.69
2024-02-02T14:29:01.157Z,8.66
2024-02-02T14:30:06.423Z,8.62
2024-02-02T14:31:10.229Z,8.68
2024-02-02T14:32:13.306Z,8.69
2024-02-02T14:33:25.701Z,8.58
2024-02-02T14:34:28.868Z,8.68
2024-02-02T14:35:30.926Z,8.57
2024-02-02T14:36:33.494Z,8.60
2024-02-02T14:37:35.739Z,8.57
2024-02-02T14:38:44.050Z,8.59